KPTN/PTN METAR and TAF weather

Enter ICAO airport designator
Station Type Date Time Source
KPTN METAR 2023/02/06 00:56 UTC NOAA

KPTN 060056Z AUTO 28004KT 1 3/4SM HZ CLR 15/10 A3021 RMK AO2 SLP229 T01500100 $


Station Type Date Time Source
KPTN Decoded METAR 2023/02/06 00:56 UTC NOAA

Patterson Memorial, LA, United States (KPTN) 29-43N 091-20W
Feb 05, 2023 - 07:56 PM EST / 2023.02.06 0056 UTC
Wind: from the W (280 degrees) at 5 MPH (4 KT):0
Visibility: 1 3/4 mile(s):0
Sky conditions: clear
Weather: haze
Temperature: 59.0 F (15.0 C)
Dew Point: 50.0 F (10.0 C)
Relative Humidity: 72%
Pressure (altimeter): 30.21 in. Hg (1023 hPa)
ob: KPTN 060056Z AUTO 28004KT 1 3/4SM HZ CLR 15/10 A3021 RMK AO2 SLP229 T01500100
cycle: 1

Station Type Date Time Source
KPTN TAF UTC NOAA

Error!

Example: see airport list